Аэропорт: Ханты-Мансийск. Ханты-Мансийск

ICAO: USHH

METAR:
2024-07-24 16:00:00
USHH 241600Z 05003MPS 9999 FEW040CB 18/06 Q1008 R06/010060 NOSIG
TAF:
2024-07-24 13:42:00
TAF USHH 241342Z 2415/2515 36003G12MPS 9999 BKN016 
  TEMPO 2415/2424 5000 -SHRA SCT003 BKN016CB 
  TEMPO 2500/2506 2100 -SHRA SCT003 BKN011CB